createdAt,value
2018-04-02T00:01:18.512Z,-76
2018-04-02T00:03:45.131Z,-82
2018-04-02T00:06:11.779Z,-82
2018-04-02T00:08:38.398Z,-81
2018-04-02T00:11:05.415Z,-81
2018-04-02T00:13:32.469Z,-81
2018-04-02T00:15:59.482Z,-81
2018-04-02T00:18:26.101Z,-76
2018-04-02T00:20:52.728Z,-76
2018-04-02T00:23:19.349Z,-76
2018-04-02T00:25:45.989Z,-76
2018-04-02T00:28:12.606Z,-76
2018-04-02T00:30:39.242Z,-76
2018-04-02T00:33:07.773Z,-80
2018-04-02T00:35:34.414Z,-76
2018-04-02T00:38:01.035Z,-76
2018-04-02T00:40:28.070Z,-76
2018-04-02T00:42:54.698Z,-76
2018-04-02T00:45:21.354Z,-76
2018-04-02T00:47:48.406Z,-76
2018-04-02T00:50:15.465Z,-75
2018-04-02T00:52:42.099Z,-75
2018-04-02T00:55:09.112Z,-76
2018-04-02T00:57:35.741Z,-76
2018-04-02T01:00:02.366Z,-76
2018-04-02T01:02:29.382Z,-76
2018-04-02T01:04:56.006Z,-81
2018-04-02T01:07:24.397Z,-81
2018-04-02T01:09:51.589Z,-81
2018-04-02T01:12:18.206Z,-81
2018-04-02T01:14:44.820Z,-81
2018-04-02T01:17:11.482Z,-81
2018-04-02T01:19:40.846Z,-76
2018-04-02T01:22:07.493Z,-81
2018-04-02T01:24:34.499Z,-81
2018-04-02T01:27:01.131Z,-81
2018-04-02T01:29:27.752Z,-81
2018-04-02T01:31:54.412Z,-81
2018-04-02T01:34:21.031Z,-82
2018-04-02T01:36:47.664Z,-76
2018-04-02T01:39:14.286Z,-76
2018-04-02T01:41:40.900Z,-76
2018-04-02T01:44:08.284Z,-76
2018-04-02T01:46:34.910Z,-76
2018-04-02T01:49:01.535Z,-76
2018-04-02T01:51:28.178Z,-81
2018-04-02T01:53:54.795Z,-81
2018-04-02T01:56:21.415Z,-81
2018-04-02T01:58:48.042Z,-81
2018-04-02T02:01:14.670Z,-81
2018-04-02T02:03:41.285Z,-82
2018-04-02T02:06:08.442Z,-78
2018-04-02T02:08:35.057Z,-76
2018-04-02T02:11:01.676Z,-76
2018-04-02T02:13:28.338Z,-76
2018-04-02T02:15:55.005Z,-76
2018-04-02T02:18:21.617Z,-76
2018-04-02T02:20:48.682Z,-76
2018-04-02T02:23:15.305Z,-76
2018-04-02T02:25:41.926Z,-76
2018-04-02T02:28:08.557Z,-76
2018-04-02T02:30:35.174Z,-76
2018-04-02T02:33:02.194Z,-76
2018-04-02T02:35:28.809Z,-76
2018-04-02T02:37:55.438Z,-76
2018-04-02T02:40:22.059Z,-76
2018-04-02T02:42:48.673Z,-76
2018-04-02T02:45:15.314Z,-76
2018-04-02T02:47:42.696Z,-76
2018-04-02T02:50:09.358Z,-76
2018-04-02T02:52:35.981Z,-81
2018-04-02T02:55:02.607Z,-81
2018-04-02T02:57:29.233Z,-81
2018-04-02T02:59:55.860Z,-81
2018-04-02T03:02:22.477Z,-81
2018-04-02T03:04:49.100Z,-81
2018-04-02T03:07:15.725Z,-81
2018-04-02T03:09:42.750Z,-81
2018-04-02T03:12:09.372Z,-81
2018-04-02T03:14:35.996Z,-81
2018-04-02T03:17:03.050Z,-81
2018-04-02T03:19:29.670Z,-81
2018-04-02T03:21:56.306Z,-81
2018-04-02T03:24:22.929Z,-76
2018-04-02T03:26:49.570Z,-76
2018-04-02T03:29:16.186Z,-76
2018-04-02T03:31:42.819Z,-76
2018-04-02T03:34:10.575Z,-76
2018-04-02T03:36:37.204Z,-76
2018-04-02T03:39:04.596Z,-80
2018-04-02T03:41:31.209Z,-76
2018-04-02T03:43:57.834Z,-76
2018-04-02T03:46:24.463Z,-76
2018-04-02T03:48:51.076Z,-76
2018-04-02T03:51:17.698Z,-76
2018-04-02T03:53:44.321Z,-76
2018-04-02T03:56:10.939Z,-76
2018-04-02T03:58:37.577Z,-76
2018-04-02T04:01:04.195Z,-76
2018-04-02T04:03:30.836Z,-76
2018-04-02T04:05:57.447Z,-76
2018-04-02T04:08:24.121Z,-76
2018-04-02T04:10:51.143Z,-81
2018-04-02T04:13:18.171Z,-81
2018-04-02T04:15:45.184Z,-81
2018-04-02T04:18:11.789Z,-81
2018-04-02T04:20:38.412Z,-81
2018-04-02T04:23:14.129Z,-81
2018-04-02T04:25:41.396Z,-77
2018-04-02T04:28:08.417Z,-81
2018-04-02T04:30:35.082Z,-81
2018-04-02T04:33:01.752Z,-81
2018-04-02T04:35:28.372Z,-81
2018-04-02T04:37:54.989Z,-81
2018-04-02T04:40:21.668Z,-81
2018-04-02T04:42:48.253Z,-76
2018-04-02T04:45:14.909Z,-76
2018-04-02T04:47:41.538Z,-76
2018-04-02T04:50:08.176Z,-76
2018-04-02T04:52:40.921Z,-76
2018-04-02T04:55:07.567Z,-76
2018-04-02T04:57:34.181Z,-76
2018-04-02T05:00:00.813Z,-75
2018-04-02T05:02:27.436Z,-76
2018-04-02T05:04:54.055Z,-76
2018-04-02T05:07:20.713Z,-76
2018-04-02T05:09:47.362Z,-76
2018-04-02T05:12:13.984Z,-78
2018-04-02T05:14:41.010Z,-81
2018-04-02T05:17:07.630Z,-82
2018-04-02T05:19:34.245Z,-82
2018-04-02T05:22:01.256Z,-82
2018-04-02T05:24:27.894Z,-81
2018-04-02T05:26:54.529Z,-81
2018-04-02T05:29:21.149Z,-76
2018-04-02T05:31:47.795Z,-76
2018-04-02T05:34:14.805Z,-76
2018-04-02T05:36:41.431Z,-76
2018-04-02T05:39:08.059Z,-76
2018-04-02T05:41:34.696Z,-76
2018-04-02T05:44:01.307Z,-81
2018-04-02T05:46:27.952Z,-81
2018-04-02T05:48:54.570Z,-81
2018-04-02T05:54:00.146Z,-81
2018-04-02T05:56:26.762Z,-81
2018-04-02T05:58:53.822Z,-76
2018-04-02T06:01:20.440Z,-76
2018-04-02T06:03:47.066Z,-76
2018-04-02T06:06:13.681Z,-76
2018-04-02T06:08:40.295Z,-76
2018-04-02T06:11:06.945Z,-76
2018-04-02T06:13:33.596Z,-76
2018-04-02T06:16:00.206Z,-76
2018-04-02T06:18:26.833Z,-76
2018-04-02T06:20:53.450Z,-76
2018-04-02T06:23:20.849Z,-76
2018-04-02T06:25:47.513Z,-76
2018-04-02T06:28:14.150Z,-76
2018-04-02T06:30:40.765Z,-76
2018-04-02T06:33:07.382Z,-76
2018-04-02T06:35:34.026Z,-76
2018-04-02T06:38:00.651Z,-76
2018-04-02T06:40:27.281Z,-76
2018-04-02T06:42:53.927Z,-76
2018-04-02T06:45:20.546Z,-76
2018-04-02T06:47:47.169Z,-76
2018-04-02T06:50:14.568Z,-75
2018-04-02T06:52:41.234Z,-76
2018-04-02T06:55:07.845Z,-76
2018-04-02T06:57:34.471Z,-76
2018-04-02T07:00:01.110Z,-76
2018-04-02T07:02:27.735Z,-76
2018-04-02T07:04:54.378Z,-76
2018-04-02T07:07:21.453Z,-76
2018-04-02T07:09:48.091Z,-76
2018-04-02T07:12:14.738Z,-76
2018-04-02T07:14:41.409Z,-76
2018-04-02T07:17:08.014Z,-81
2018-04-02T07:19:34.634Z,-81
2018-04-02T07:22:01.252Z,-81
2018-04-02T07:24:27.907Z,-81
2018-04-02T07:26:54.938Z,-81
2018-04-02T07:29:21.571Z,-81
2018-04-02T07:31:48.625Z,-79
2018-04-02T07:34:15.637Z,-81
2018-04-02T07:36:42.303Z,-81
2018-04-02T07:39:08.926Z,-81
2018-04-02T07:41:35.538Z,-81
2018-04-02T07:44:02.173Z,-81
2018-04-02T07:46:29.211Z,-81
2018-04-02T07:48:55.872Z,-81
2018-04-02T07:51:23.036Z,-81
2018-04-02T07:53:49.653Z,-81
2018-04-02T07:56:17.420Z,-81
2018-04-02T07:58:44.036Z,-81
2018-04-02T08:01:10.674Z,-81
2018-04-02T08:03:37.312Z,-81
2018-04-02T08:06:08.593Z,-82
2018-04-02T08:08:35.296Z,-82
2018-04-02T08:11:01.885Z,-81
2018-04-02T08:13:28.893Z,-82
2018-04-02T08:15:55.544Z,-82
2018-04-02T08:18:22.200Z,-77
2018-04-02T08:20:49.233Z,-76
2018-04-02T08:23:16.251Z,-75
2018-04-02T08:25:42.870Z,-75
2018-04-02T08:28:09.522Z,-76
2018-04-02T08:30:36.137Z,-76
2018-04-02T08:33:02.765Z,-75
2018-04-02T08:35:41.522Z,-76
2018-04-02T08:38:08.544Z,-76
2018-04-02T08:40:35.158Z,-76
2018-04-02T08:43:02.220Z,-76
2018-04-02T08:45:28.862Z,-76
2018-04-02T08:47:55.476Z,-76
2018-04-02T08:50:22.130Z,-76
2018-04-02T08:52:49.172Z,-76
2018-04-02T08:55:16.185Z,-76
2018-04-02T08:57:42.796Z,-76
2018-04-02T09:00:09.414Z,-76
2018-04-02T09:02:36.430Z,-76
2018-04-02T09:05:03.829Z,-81
2018-04-02T09:07:30.453Z,-82
2018-04-02T09:09:57.470Z,-82
2018-04-02T09:12:24.088Z,-81
2018-04-02T09:14:51.098Z,-82
2018-04-02T09:17:17.766Z,-85
2018-04-02T09:19:44.382Z,-85
2018-04-02T09:22:13.053Z,-83
2018-04-02T09:24:39.682Z,-83
2018-04-02T09:27:06.310Z,-81
2018-04-02T09:29:32.924Z,-81
2018-04-02T09:31:59.541Z,-81
2018-04-02T09:34:26.160Z,-81
2018-04-02T09:36:52.776Z,-75
2018-04-02T09:39:19.396Z,-75
2018-04-02T09:41:46.413Z,-75
2018-04-02T09:44:13.041Z,-74
2018-04-02T09:46:39.664Z,-75
2018-04-02T09:49:06.282Z,-75
2018-04-02T09:51:32.898Z,-74
2018-04-02T09:53:59.511Z,-74
2018-04-02T09:56:26.537Z,-74
2018-04-02T09:58:53.155Z,-74
2018-04-02T10:01:19.782Z,-75
2018-04-02T10:03:52.195Z,-75
2018-04-02T10:06:20.239Z,-78
2018-04-02T10:08:46.854Z,-75
2018-04-02T10:11:13.470Z,-75
2018-04-02T10:13:40.489Z,-75
2018-04-02T10:16:07.522Z,-75
2018-04-02T10:18:34.147Z,-74
2018-04-02T10:21:00.825Z,-74
2018-04-02T10:23:27.445Z,-75
2018-04-02T10:25:54.064Z,-75
2018-04-02T10:28:20.678Z,-74
2018-04-02T10:30:48.065Z,-75
2018-04-02T10:33:15.080Z,-75
2018-04-02T10:35:41.756Z,-75
2018-04-02T10:38:08.386Z,-81
2018-04-02T10:40:34.999Z,-81
2018-04-02T10:43:01.619Z,-81
2018-04-02T10:45:28.247Z,-81
2018-04-02T10:47:56.640Z,-81
2018-04-02T10:50:23.302Z,-81
2018-04-02T10:52:49.947Z,-81
2018-04-02T10:55:16.563Z,-81
2018-04-02T10:57:43.576Z,-81
2018-04-02T11:00:10.212Z,-81
2018-04-02T11:02:36.882Z,-81
2018-04-02T11:05:03.918Z,-82
2018-04-02T11:07:30.539Z,-82
2018-04-02T11:09:57.555Z,-74
2018-04-02T11:12:24.186Z,-75
2018-04-02T11:14:50.805Z,-75
2018-04-02T11:17:17.424Z,-74
2018-04-02T11:19:44.109Z,-74
2018-04-02T11:22:10.729Z,-75
2018-04-02T11:24:37.354Z,-81
2018-04-02T11:27:04.393Z,-82
2018-04-02T11:29:31.014Z,-82
2018-04-02T11:31:57.625Z,-82
2018-04-02T11:34:24.250Z,-82
2018-04-02T11:36:50.901Z,-82
2018-04-02T11:39:17.538Z,-82
2018-04-02T11:41:44.153Z,-74
2018-04-02T11:44:11.190Z,-75
2018-04-02T11:46:37.798Z,-74
2018-04-02T11:49:04.416Z,-74
2018-04-02T11:51:31.435Z,-74
2018-04-02T11:53:58.074Z,-74
2018-04-02T11:56:24.689Z,-74
2018-04-02T11:58:51.800Z,-74
2018-04-02T12:01:18.651Z,-75
2018-04-02T12:03:45.279Z,-74
2018-04-02T12:06:11.957Z,-74
2018-04-02T12:08:38.583Z,-74
2018-04-02T12:11:05.631Z,-81
2018-04-02T12:13:32.250Z,-81
2018-04-02T12:15:59.630Z,-81
2018-04-02T12:18:26.253Z,-81
2018-04-02T12:20:53.364Z,-81
2018-04-02T12:23:19.977Z,-81
2018-04-02T12:25:46.617Z,-81
2018-04-02T12:28:13.236Z,-81
2018-04-02T12:30:39.909Z,-81
2018-04-02T12:33:06.926Z,-82
2018-04-02T12:35:33.569Z,-82
2018-04-02T12:38:00.192Z,-81
2018-04-02T12:40:26.804Z,-81
2018-04-02T12:42:53.854Z,-74
2018-04-02T12:45:20.489Z,-74
2018-04-02T12:47:47.521Z,-74
2018-04-02T12:50:14.150Z,-74
2018-04-02T12:52:40.769Z,-75
2018-04-02T12:55:07.438Z,-75
2018-04-02T12:57:34.060Z,-81
2018-04-02T13:00:00.682Z,-81
2018-04-02T13:02:27.381Z,-81
2018-04-02T13:04:54.000Z,-81
2018-04-02T13:07:20.612Z,-81
2018-04-02T13:09:47.626Z,-81
2018-04-02T13:12:15.525Z,-80
2018-04-02T13:14:42.169Z,-75
2018-04-02T13:17:08.818Z,-75
2018-04-02T13:19:35.428Z,-75
2018-04-02T13:22:02.510Z,-75
2018-04-02T13:24:35.593Z,-75
2018-04-02T13:27:02.600Z,-74
2018-04-02T13:29:29.223Z,-75
2018-04-02T13:31:55.845Z,-74
2018-04-02T13:34:22.459Z,-74
2018-04-02T13:36:49.076Z,-74
2018-04-02T13:39:15.729Z,-75
2018-04-02T13:41:42.360Z,-74
2018-04-02T13:44:09.373Z,-75
2018-04-02T13:46:35.993Z,-75
2018-04-02T13:49:02.607Z,-74
2018-04-02T13:51:29.230Z,-75
2018-04-02T13:53:55.850Z,-74
2018-04-02T13:56:22.874Z,-75
2018-04-02T13:58:50.550Z,-80
2018-04-02T14:01:17.193Z,-81
2018-04-02T14:03:43.836Z,-81
2018-04-02T14:06:10.449Z,-81
2018-04-02T14:08:37.092Z,-81
2018-04-02T14:11:03.758Z,-81
2018-04-02T14:13:30.359Z,-82
2018-04-02T14:15:56.978Z,-81
2018-04-02T14:18:23.596Z,-81
2018-04-02T14:20:50.212Z,-81
2018-04-02T14:23:17.267Z,-82
2018-04-02T14:25:46.395Z,-82
2018-04-02T14:28:13.012Z,-82
2018-04-02T14:30:40.028Z,-74
2018-04-02T14:33:07.044Z,-75
2018-04-02T14:35:33.671Z,-75
2018-04-02T14:38:00.289Z,-74
2018-04-02T14:40:26.934Z,-75
2018-04-02T14:42:53.547Z,-74
2018-04-02T14:45:20.175Z,-75
2018-04-02T14:47:46.796Z,-74
2018-04-02T14:50:13.434Z,-75
2018-04-02T14:52:40.102Z,-75
2018-04-02T14:55:06.765Z,-75
2018-04-02T14:57:33.379Z,-75
2018-04-02T14:59:59.999Z,-75
2018-04-02T15:02:27.013Z,-75
2018-04-02T15:04:53.632Z,-74
2018-04-02T15:07:20.246Z,-75
2018-04-02T15:09:47.263Z,-75
2018-04-02T15:12:13.906Z,-75
2018-04-02T15:14:40.914Z,-75
2018-04-02T15:17:07.923Z,-75
2018-04-02T15:19:34.557Z,-75
2018-04-02T15:22:01.219Z,-74
2018-04-02T15:24:27.834Z,-75
2018-04-02T15:26:54.465Z,-74
2018-04-02T15:29:21.149Z,-74
2018-04-02T15:31:47.744Z,-74
2018-04-02T15:34:14.381Z,-75
2018-04-02T15:36:41.437Z,-75
2018-04-02T15:39:08.460Z,-75
2018-04-02T15:41:35.078Z,-74
2018-04-02T15:44:02.107Z,-74
2018-04-02T15:46:28.747Z,-75
2018-04-02T15:48:55.380Z,-74
2018-04-02T15:51:21.994Z,-74
2018-04-02T15:53:48.620Z,-74
2018-04-02T15:56:15.238Z,-75
2018-04-02T15:58:41.855Z,-75
2018-04-02T16:01:08.478Z,-75
2018-04-02T16:03:35.511Z,-82
2018-04-02T16:06:02.536Z,-82
2018-04-02T16:08:29.571Z,-82
2018-04-02T16:10:56.196Z,-82
2018-04-02T16:13:23.241Z,-82
2018-04-02T16:15:49.871Z,-82
2018-04-02T16:18:17.622Z,-76
2018-04-02T16:20:44.629Z,-82
2018-04-02T16:23:11.242Z,-83
2018-04-02T16:25:37.860Z,-82
2018-04-02T16:28:05.237Z,-82
2018-04-02T16:30:32.295Z,-82
2018-04-02T16:32:59.306Z,-82
2018-04-02T16:35:26.321Z,-82
2018-04-02T16:37:52.990Z,-82
2018-04-02T16:40:20.392Z,-82
2018-04-02T16:42:47.008Z,-82
2018-04-02T16:45:13.626Z,-82
2018-04-02T16:47:40.253Z,-82
2018-04-02T16:50:07.299Z,-82
2018-04-02T16:52:33.943Z,-82
2018-04-02T16:55:00.571Z,-82
2018-04-02T16:57:27.585Z,-82
2018-04-02T16:59:54.627Z,-82
2018-04-02T17:02:21.250Z,-82
2018-04-02T17:04:48.287Z,-83
2018-04-02T17:07:14.910Z,-82
2018-04-02T17:09:41.576Z,-83
2018-04-02T17:12:08.583Z,-83
2018-04-02T17:14:35.193Z,-83
2018-04-02T17:17:01.810Z,-82
2018-04-02T17:19:28.438Z,-82
2018-04-02T17:21:55.474Z,-74
2018-04-02T17:24:22.485Z,-74
2018-04-02T17:26:49.124Z,-75
2018-04-02T17:29:15.748Z,-75
2018-04-02T17:31:42.779Z,-75
2018-04-02T17:34:09.851Z,-74
2018-04-02T17:36:36.990Z,-80
2018-04-02T17:39:03.622Z,-82
2018-04-02T17:41:30.245Z,-82
2018-04-02T17:43:56.923Z,-82
2018-04-02T17:46:23.518Z,-83
2018-04-02T17:48:50.534Z,-83
2018-04-02T17:51:17.875Z,-83
2018-04-02T17:53:44.522Z,-82
2018-04-02T17:56:11.241Z,-82
2018-04-02T17:58:37.795Z,-82
2018-04-02T18:01:04.433Z,-82
2018-04-02T18:03:32.856Z,-82
2018-04-02T18:05:59.655Z,-82
2018-04-02T18:08:26.286Z,-75
2018-04-02T18:10:52.969Z,-74
2018-04-02T18:13:19.587Z,-75
2018-04-02T18:15:46.206Z,-74
2018-04-02T18:18:12.872Z,-75
2018-04-02T18:20:39.480Z,-74
2018-04-02T18:23:06.098Z,-81
2018-04-02T18:25:32.740Z,-82
2018-04-02T18:27:59.378Z,-82
2018-04-02T18:30:26.763Z,-82
2018-04-02T18:32:53.385Z,-83
2018-04-02T18:35:20.403Z,-82
2018-04-02T18:37:47.065Z,-82
2018-04-02T18:40:13.700Z,-74
2018-04-02T18:42:40.356Z,-75
2018-04-02T18:45:07.025Z,-74
2018-04-02T18:47:33.616Z,-75
2018-04-02T18:50:00.287Z,-75
2018-04-02T18:52:26.941Z,-74
2018-04-02T18:54:53.559Z,-74
2018-04-02T18:57:20.178Z,-75
2018-04-02T18:59:46.809Z,-75
2018-04-02T19:02:14.186Z,-75
2018-04-02T19:04:40.824Z,-74
2018-04-02T19:07:07.843Z,-74
2018-04-02T19:09:34.477Z,-82
2018-04-02T19:12:01.094Z,-82
2018-04-02T19:14:28.142Z,-82
2018-04-02T19:16:54.765Z,-82
2018-04-02T19:19:21.412Z,-82
2018-04-02T19:21:48.042Z,-82
2018-04-02T19:24:15.051Z,-82
2018-04-02T19:26:41.670Z,-82
2018-04-02T19:29:08.284Z,-82
2018-04-02T19:31:35.297Z,-82
2018-04-02T19:34:02.310Z,-82
2018-04-02T19:36:28.941Z,-82
2018-04-02T19:38:56.914Z,-82
2018-04-02T19:41:23.543Z,-74
2018-04-02T19:43:50.197Z,-74
2018-04-02T19:46:16.837Z,-75
2018-04-02T19:48:44.218Z,-74
2018-04-02T19:51:11.244Z,-74
2018-04-02T19:53:37.862Z,-75
2018-04-02T19:56:04.504Z,-74
2018-04-02T19:58:31.122Z,-75
2018-04-02T20:00:57.759Z,-74
2018-04-02T20:03:24.774Z,-75
2018-04-02T20:05:51.864Z,-74
2018-04-02T20:08:18.449Z,-75
2018-04-02T20:10:45.106Z,-74
2018-04-02T20:13:12.219Z,-74
2018-04-02T20:15:38.800Z,-74
2018-04-02T20:18:05.415Z,-75
2018-04-02T20:20:32.071Z,-74
2018-04-02T20:22:58.755Z,-74
2018-04-02T20:25:25.784Z,-74
2018-04-02T20:27:52.789Z,-82
2018-04-02T20:30:19.405Z,-82
2018-04-02T20:32:46.017Z,-82
2018-04-02T20:35:12.636Z,-82
2018-04-02T20:37:40.136Z,-82
2018-04-02T20:40:06.744Z,-82
2018-04-02T20:42:34.243Z,-79
2018-04-02T20:45:01.265Z,-82
2018-04-02T20:47:27.929Z,-82
2018-04-02T20:49:54.590Z,-82
2018-04-02T20:52:21.239Z,-82
2018-04-02T20:54:48.255Z,-82
2018-04-02T20:57:15.942Z,-78
2018-04-02T20:59:42.554Z,-82
2018-04-02T21:02:09.573Z,-82
2018-04-02T21:04:36.192Z,-82
2018-04-02T21:07:02.855Z,-82
2018-04-02T21:09:29.461Z,-82
2018-04-02T21:12:00.321Z,-82
2018-04-02T21:14:26.940Z,-74
2018-04-02T21:16:53.948Z,-74
2018-04-02T21:19:20.610Z,-74
2018-04-02T21:21:47.676Z,-74
2018-04-02T21:24:14.289Z,-75
2018-04-02T21:26:40.924Z,-75
2018-04-02T21:29:07.545Z,-75
2018-04-02T21:31:34.178Z,-75
2018-04-02T21:34:00.851Z,-74
2018-04-02T21:36:27.491Z,-75
2018-04-02T21:38:54.153Z,-74
2018-04-02T21:41:20.776Z,-74
2018-04-02T21:43:47.410Z,-74
2018-04-02T21:46:14.030Z,-82
2018-04-02T21:48:40.699Z,-82
2018-04-02T21:51:07.326Z,-82
2018-04-02T21:53:34.412Z,-82
2018-04-02T21:56:01.025Z,-82
2018-04-02T21:58:27.650Z,-82
2018-04-02T22:00:54.669Z,-82
2018-04-02T22:03:21.285Z,-82
2018-04-02T22:05:47.926Z,-82
2018-04-02T22:08:14.557Z,-82
2018-04-02T22:10:41.269Z,-82
2018-04-02T22:13:07.896Z,-82
2018-04-02T22:15:34.520Z,-75
2018-04-02T22:18:01.547Z,-74
2018-04-02T22:20:28.191Z,-75
2018-04-02T22:22:54.815Z,-74
2018-04-02T22:25:21.436Z,-74
2018-04-02T22:27:48.054Z,-74
2018-04-02T22:30:14.667Z,-75
2018-04-02T22:32:41.277Z,-82
2018-04-02T22:35:08.305Z,-82
2018-04-02T22:37:35.344Z,-82
2018-04-02T22:40:01.961Z,-82
2018-04-02T22:42:28.584Z,-82
2018-04-02T22:47:34.058Z,-82
2018-04-02T22:50:00.670Z,-82
2018-04-02T22:52:27.292Z,-82
2018-04-02T22:54:54.302Z,-82
2018-04-02T22:57:20.922Z,-82
2018-04-02T22:59:47.939Z,-82
2018-04-02T23:02:14.560Z,-82
2018-04-02T23:04:41.182Z,-82
2018-04-02T23:07:08.197Z,-82
2018-04-02T23:09:34.815Z,-82
2018-04-02T23:12:01.434Z,-82
2018-04-02T23:14:28.049Z,-82
2018-04-02T23:17:03.182Z,-79
2018-04-02T23:19:29.802Z,-74
2018-04-02T23:21:56.832Z,-74
2018-04-02T23:24:23.461Z,-75
2018-04-02T23:26:50.095Z,-74
2018-04-02T23:29:16.710Z,-75
2018-04-02T23:31:43.335Z,-75
2018-04-02T23:34:09.989Z,-82
2018-04-02T23:36:37.061Z,-82
2018-04-02T23:39:03.684Z,-82
2018-04-02T23:41:30.310Z,-82
2018-04-02T23:43:57.355Z,-82
2018-04-02T23:46:23.979Z,-82
2018-04-02T23:48:50.989Z,-82
2018-04-02T23:51:17.994Z,-82
2018-04-02T23:53:44.637Z,-82
2018-04-02T23:56:12.045Z,-82
2018-04-02T23:58:39.090Z,-82
